sensor_id;sensor_type;location;lat;lon;timestamp;pressure;altitude;pressure_sealevel;temperature;humidity
70217;BME280;65567;55.684;37.570;2023-11-21T00:02:07;98648.72;;;-3.44;48.56
70217;BME280;65567;55.684;37.570;2023-11-21T00:04:32;98643.63;;;-3.52;48.76
70217;BME280;65567;55.684;37.570;2023-11-21T00:06:58;98649.63;;;-3.56;48.25
70217;BME280;65567;55.684;37.570;2023-11-21T00:09:24;98656.44;;;-3.58;48.39
70217;BME280;65567;55.684;37.570;2023-11-21T00:11:50;98652.16;;;-3.50;48.30
70217;BME280;65567;55.684;37.570;2023-11-21T00:14:21;98647.88;;;-3.51;48.10
70217;BME280;65567;55.684;37.570;2023-11-21T00:16:47;98641.09;;;-3.63;48.45
70217;BME280;65567;55.684;37.570;2023-11-21T00:19:13;98653.84;;;-3.49;48.18
70217;BME280;65567;55.684;37.570;2023-11-21T00:21:38;98652.19;;;-3.55;48.21
70217;BME280;65567;55.684;37.570;2023-11-21T00:24:04;98630.91;;;-3.74;48.71
70217;BME280;65567;55.684;37.570;2023-11-21T00:26:31;98651.41;;;-3.77;48.67
70217;BME280;65567;55.684;37.570;2023-11-21T00:29:02;98637.72;;;-3.76;48.59
70217;BME280;65567;55.684;37.570;2023-11-21T00:31:28;98646.25;;;-3.74;48.88
70217;BME280;65567;55.684;37.570;2023-11-21T00:33:54;98643.72;;;-3.82;49.15
70217;BME280;65567;55.684;37.570;2023-11-21T00:36:21;98647.09;;;-3.73;48.71
70217;BME280;65567;55.684;37.570;2023-11-21T00:38:46;98646.22;;;-3.65;48.66
70217;BME280;65567;55.684;37.570;2023-11-21T00:41:14;98650.50;;;-3.70;49.33
70217;BME280;65567;55.684;37.570;2023-11-21T00:43:39;98651.34;;;-3.71;48.39
70217;BME280;65567;55.684;37.570;2023-11-21T00:46:05;98644.53;;;-3.75;48.72
70217;BME280;65567;55.684;37.570;2023-11-21T00:48:34;98644.53;;;-3.70;48.37
70217;BME280;65567;55.684;37.570;2023-11-21T00:51:00;98638.56;;;-3.68;48.40
70217;BME280;65567;55.684;37.570;2023-11-21T00:53:26;98644.53;;;-3.75;48.25
70217;BME280;65567;55.684;37.570;2023-11-21T00:55:55;98646.25;;;-3.80;49.04
70217;BME280;65567;55.684;37.570;2023-11-21T00:58:23;98633.47;;;-3.74;48.46
70217;BME280;65567;55.684;37.570;2023-11-21T01:00:49;98647.13;;;-3.84;48.44
70217;BME280;65567;55.684;37.570;2023-11-21T01:03:15;98639.44;;;-3.84;48.82
70217;BME280;65567;55.684;37.570;2023-11-21T01:05:45;98647.13;;;-3.83;48.54
70217;BME280;65567;55.684;37.570;2023-11-21T01:08:14;98639.44;;;-3.84;48.81
70217;BME280;65567;55.684;37.570;2023-11-21T01:10:39;98648.84;;;-3.89;48.78
70217;BME280;65567;55.684;37.570;2023-11-21T01:13:05;98654.81;;;-3.90;49.30
70217;BME280;65567;55.684;37.570;2023-11-21T01:15:33;98650.56;;;-3.90;49.15
70217;BME280;65567;55.684;37.570;2023-11-21T01:18:01;98647.16;;;-3.89;48.55
70217;BME280;65567;55.684;37.570;2023-11-21T01:20:27;98641.16;;;-3.89;49.35
70217;BME280;65567;55.684;37.570;2023-11-21T01:22:53;98649.69;;;-3.90;49.11
70217;BME280;65567;55.684;37.570;2023-11-21T01:25:22;98644.56;;;-3.84;48.75
70217;BME280;65567;55.684;37.570;2023-11-21T01:27:51;98638.63;;;-3.86;48.55
70217;BME280;65567;55.684;37.570;2023-11-21T01:30:17;98603.69;;;-4.06;48.76
70217;BME280;65567;55.684;37.570;2023-11-21T01:32:43;98608.78;;;-4.00;48.60
70217;BME280;65567;55.684;37.570;2023-11-21T01:35:10;98613.00;;;-3.83;48.92
70217;BME280;65567;55.684;37.570;2023-11-21T01:37:37;98641.13;;;-3.68;49.02
70217;BME280;65567;55.684;37.570;2023-11-21T01:40:03;98596.84;;;-3.91;48.28
70217;BME280;65567;55.684;37.570;2023-11-21T01:42:34;98630.88;;;-3.61;48.42
70217;BME280;65567;55.684;37.570;2023-11-21T01:45:00;98639.38;;;-3.53;48.60
70217;BME280;65567;55.684;37.570;2023-11-21T01:47:31;98616.41;;;-3.70;48.56
70217;BME280;65567;55.684;37.570;2023-11-21T01:49:58;98638.56;;;-3.68;50.25
70217;BME280;65567;55.684;37.570;2023-11-21T01:52:24;98642.75;;;-3.48;48.71
70217;BME280;65567;55.684;37.570;2023-11-21T01:54:52;98644.53;;;-3.62;49.34
70217;BME280;65567;55.684;37.570;2023-11-21T01:57:19;98643.66;;;-3.58;48.21
70217;BME280;65567;55.684;37.570;2023-11-21T01:59:48;98646.25;;;-3.74;48.98
70217;BME280;65567;55.684;37.570;2023-11-21T02:02:14;98644.56;;;-3.86;49.12
70217;BME280;65567;55.684;37.570;2023-11-21T02:04:42;98656.53;;;-3.95;50.83
70217;BME280;65567;55.684;37.570;2023-11-21T02:07:08;98656.47;;;-3.71;49.26
70217;BME280;65567;55.684;37.570;2023-11-21T02:09:34;98647.94;;;-3.68;48.61
70217;BME280;65567;55.684;37.570;2023-11-21T02:12:00;98653.94;;;-3.74;47.94
70217;BME280;65567;55.684;37.570;2023-11-21T02:14:26;98650.53;;;-3.74;48.26
70217;BME280;65567;55.684;37.570;2023-11-21T02:16:54;98625.84;;;-3.99;48.05
70217;BME280;65567;55.684;37.570;2023-11-21T02:19:21;98648.00;;;-3.94;50.53
70217;BME280;65567;55.684;37.570;2023-11-21T02:21:57;98646.31;;;-3.86;49.67
70217;BME280;65567;55.684;37.570;2023-11-21T02:24:26;98635.19;;;-3.82;48.54
70217;BME280;65567;55.684;37.570;2023-11-21T02:26:52;98641.22;;;-4.02;51.09
70217;BME280;65567;55.684;37.570;2023-11-21T02:29:19;98653.09;;;-3.85;50.93
70217;BME280;65567;55.684;37.570;2023-11-21T02:31:49;98659.88;;;-3.62;49.54
70217;BME280;65567;55.684;37.570;2023-11-21T02:34:15;98651.41;;;-3.77;50.54
70217;BME280;65567;55.684;37.570;2023-11-21T02:36:42;98653.94;;;-3.69;50.19
70217;BME280;65567;55.684;37.570;2023-11-21T02:39:09;98651.38;;;-3.68;50.38
70217;BME280;65567;55.684;37.570;2023-11-21T02:41:37;98640.22;;;-3.60;47.51
70217;BME280;65567;55.684;37.570;2023-11-21T02:44:03;98651.34;;;-3.58;48.32
70217;BME280;65567;55.684;37.570;2023-11-21T02:46:29;98638.56;;;-3.61;48.36
70217;BME280;65567;55.684;37.570;2023-11-21T02:48:54;98652.97;;;-3.45;47.96
70217;BME280;65567;55.684;37.570;2023-11-21T02:51:20;98659.81;;;-3.45;47.61
70217;BME280;65567;55.684;37.570;2023-11-21T02:53:46;98659.81;;;-3.39;47.90
70217;BME280;65567;55.684;37.570;2023-11-21T02:56:12;98658.16;;;-3.60;49.49
70217;BME280;65567;55.684;37.570;2023-11-21T02:58:41;98665.88;;;-3.73;49.66
70217;BME280;65567;55.684;37.570;2023-11-21T03:01:09;98673.53;;;-3.62;48.33
70217;BME280;65567;55.684;37.570;2023-11-21T03:03:37;98666.72;;;-3.74;48.32
70217;BME280;65567;55.684;37.570;2023-11-21T03:06:06;98674.41;;;-3.68;47.86
70217;BME280;65567;55.684;37.570;2023-11-21T03:08:32;98676.94;;;-3.58;46.71
70217;BME280;65567;55.684;37.570;2023-11-21T03:11:01;98670.94;;;-3.60;48.07
70217;BME280;65567;55.684;37.570;2023-11-21T03:13:28;98670.97;;;-3.57;47.26
70217;BME280;65567;55.684;37.570;2023-11-21T03:15:54;98682.94;;;-3.70;46.98
70217;BME280;65567;55.684;37.570;2023-11-21T03:18:20;98680.38;;;-3.72;47.21
70217;BME280;65567;55.684;37.570;2023-11-21T03:20:47;98680.38;;;-3.64;46.02
70217;BME280;65567;55.684;37.570;2023-11-21T03:23:13;98681.22;;;-3.68;46.62
70217;BME280;65567;55.684;37.570;2023-11-21T03:25:39;98680.38;;;-3.75;46.87
70217;BME280;65567;55.684;37.570;2023-11-21T03:28:05;98679.53;;;-3.75;46.58
70217;BME280;65567;55.684;37.570;2023-11-21T03:30:32;98628.41;;;-4.08;46.89
70217;BME280;65567;55.684;37.570;2023-11-21T03:32:58;98686.38;;;-4.02;48.52
70217;BME280;65567;55.684;37.570;2023-11-21T03:35:23;98692.34;;;-3.86;49.61
70217;BME280;65567;55.684;37.570;2023-11-21T03:37:50;98693.19;;;-3.76;46.73
70217;BME280;65567;55.684;37.570;2023-11-21T03:40:15;98682.97;;;-3.98;48.22
70217;BME280;65567;55.684;37.570;2023-11-21T03:42:42;98695.72;;;-3.81;47.36
70217;BME280;65567;55.684;37.570;2023-11-21T03:45:11;98700.00;;;-3.89;48.72
70217;BME280;65567;55.684;37.570;2023-11-21T03:47:37;98694.91;;;-3.83;48.94
70217;BME280;65567;55.684;37.570;2023-11-21T03:50:03;98694.06;;;-3.90;50.02
70217;BME280;65567;55.684;37.570;2023-11-21T03:52:32;98697.44;;;-3.80;47.91
70217;BME280;65567;55.684;37.570;2023-11-21T03:54:58;98705.97;;;-3.76;48.99
70217;BME280;65567;55.684;37.570;2023-11-21T03:57:24;98695.75;;;-3.90;48.10
70217;BME280;65567;55.684;37.570;2023-11-21T03:59:49;98696.59;;;-3.85;48.34
70217;BME280;65567;55.684;37.570;2023-11-21T04:02:15;98698.28;;;-3.75;47.95
70217;BME280;65567;55.684;37.570;2023-11-21T04:04:42;98700.00;;;-3.88;48.44
70217;BME280;65567;55.684;37.570;2023-11-21T04:07:08;98714.50;;;-3.77;47.64
70217;BME280;65567;55.684;37.570;2023-11-21T04:09:33;98701.72;;;-3.85;48.52
70217;BME280;65567;55.684;37.570;2023-11-21T04:12:00;98708.53;;;-3.76;47.35
70217;BME280;65567;55.684;37.570;2023-11-21T04:14:26;98701.72;;;-3.88;48.59
70217;BME280;65567;55.684;37.570;2023-11-21T04:16:52;98698.31;;;-3.86;48.48
70217;BME280;65567;55.684;37.570;2023-11-21T04:19:19;98659.09;;;-4.00;48.71
70217;BME280;65567;55.684;37.570;2023-11-21T04:21:44;98678.69;;;-3.85;47.30
70217;BME280;65567;55.684;37.570;2023-11-21T04:24:11;98700.00;;;-3.75;48.63
70217;BME280;65567;55.684;37.570;2023-11-21T04:26:37;98695.69;;;-3.66;47.49
70217;BME280;65567;55.684;37.570;2023-11-21T04:29:03;98678.66;;;-3.76;47.87
70217;BME280;65567;55.684;37.570;2023-11-21T04:31:30;98698.25;;;-3.58;48.11
70217;BME280;65567;55.684;37.570;2023-11-21T04:33:56;98690.59;;;-3.56;47.88
70217;BME280;65567;55.684;37.570;2023-11-21T04:36:21;98686.31;;;-3.60;48.21
70217;BME280;65567;55.684;37.570;2023-11-21T04:38:50;98703.38;;;-3.58;47.98
70217;BME280;65567;55.684;37.570;2023-11-21T04:41:16;98711.88;;;-3.53;48.37
70217;BME280;65567;55.684;37.570;2023-11-21T04:43:41;98694.84;;;-3.63;47.15
70217;BME280;65567;55.684;37.570;2023-11-21T04:46:11;98716.16;;;-3.50;46.82
70217;BME280;65567;55.684;37.570;2023-11-21T04:48:36;98727.28;;;-3.63;46.92
70217;BME280;65567;55.684;37.570;2023-11-21T04:51:02;98725.59;;;-3.74;48.30
70217;BME280;65567;55.684;37.570;2023-11-21T04:53:29;98736.69;;;-3.70;47.54
70217;BME280;65567;55.684;37.570;2023-11-21T04:55:58;98726.44;;;-3.72;47.67
70217;BME280;65567;55.684;37.570;2023-11-21T04:58:24;98731.56;;;-3.64;47.22
70217;BME280;65567;55.684;37.570;2023-11-21T05:00:50;98728.13;;;-3.65;46.73
70217;BME280;65567;55.684;37.570;2023-11-21T05:03:19;98733.25;;;-3.71;47.14
70217;BME280;65567;55.684;37.570;2023-11-21T05:05:45;98729.84;;;-3.67;46.72
70217;BME280;65567;55.684;37.570;2023-11-21T05:08:11;98734.09;;;-3.81;46.87
70217;BME280;65567;55.684;37.570;2023-11-21T05:10:43;98739.25;;;-3.84;46.69
70217;BME280;65567;55.684;37.570;2023-11-21T05:13:08;98743.53;;;-3.92;47.88
70217;BME280;65567;55.684;37.570;2023-11-21T05:15:36;98733.28;;;-3.97;47.13
70217;BME280;65567;55.684;37.570;2023-11-21T05:18:02;98746.06;;;-3.97;47.25
70217;BME280;65567;55.684;37.570;2023-11-21T05:20:28;98737.53;;;-3.96;47.06
70217;BME280;65567;55.684;37.570;2023-11-21T05:22:53;98743.50;;;-3.97;47.01
70217;BME280;65567;55.684;37.570;2023-11-21T05:25:22;98741.78;;;-4.06;47.12
70217;BME280;65567;55.684;37.570;2023-11-21T05:27:48;98731.56;;;-4.18;47.07
70217;BME280;65567;55.684;37.570;2023-11-21T05:30:14;98736.69;;;-4.24;47.81
70217;BME280;65567;55.684;37.570;2023-11-21T05:32:40;98740.09;;;-4.19;47.36
70217;BME280;65567;55.684;37.570;2023-11-21T05:35:09;98735.00;;;-4.22;47.54
70217;BME280;65567;55.684;37.570;2023-11-21T05:37:38;98729.03;;;-4.20;47.76
70217;BME280;65567;55.684;37.570;2023-11-21T05:40:06;98724.78;;;-4.16;47.83
70217;BME280;65567;55.684;37.570;2023-11-21T05:42:33;98731.56;;;-4.15;47.49
70217;BME280;65567;55.684;37.570;2023-11-21T05:44:59;98735.00;;;-4.22;47.63
70217;BME280;65567;55.684;37.570;2023-11-21T05:47:36;98740.94;;;-4.33;47.87
70217;BME280;65567;55.684;37.570;2023-11-21T05:50:02;98724.72;;;-4.47;48.11
70217;BME280;65567;55.684;37.570;2023-11-21T05:52:28;98746.91;;;-4.34;48.35
70217;BME280;65567;55.684;37.570;2023-11-21T05:54:53;98736.66;;;-4.48;48.56
70217;BME280;65567;55.684;37.570;2023-11-21T05:57:19;98751.16;;;-4.37;48.50
70217;BME280;65567;55.684;37.570;2023-11-21T05:59:45;98740.06;;;-4.56;48.56
70217;BME280;65567;55.684;37.570;2023-11-21T06:02:11;98747.69;;;-4.59;49.02
70217;BME280;65567;55.684;37.570;2023-11-21T06:04:37;98748.59;;;-4.51;49.14
70217;BME280;65567;55.684;37.570;2023-11-21T06:07:05;98751.97;;;-4.48;49.63
70217;BME280;65567;55.684;37.570;2023-11-21T06:09:32;98758.00;;;-4.32;49.19
70217;BME280;65567;55.684;37.570;2023-11-21T06:11:58;98767.38;;;-4.27;49.52
70217;BME280;65567;55.684;37.570;2023-11-21T06:14:24;98775.03;;;-4.23;49.79
70217;BME280;65567;55.684;37.570;2023-11-21T06:16:49;98772.50;;;-4.15;49.42
70217;BME280;65567;55.684;37.570;2023-11-21T06:19:17;98728.16;;;-4.33;49.06
70217;BME280;65567;55.684;37.570;2023-11-21T06:21:46;98763.97;;;-4.14;50.25
70217;BME280;65567;55.684;37.570;2023-11-21T06:24:12;98772.53;;;-3.96;49.85
70217;BME280;65567;55.684;37.570;2023-11-21T06:26:38;98778.50;;;-3.90;49.14
70217;BME280;65567;55.684;37.570;2023-11-21T06:29:03;98771.66;;;-3.88;49.24
70217;BME280;65567;55.684;37.570;2023-11-21T06:31:30;98774.22;;;-3.80;49.34
70217;BME280;65567;55.684;37.570;2023-11-21T06:33:55;98781.03;;;-3.63;48.95
70217;BME280;65567;55.684;37.570;2023-11-21T06:36:21;98784.44;;;-3.65;48.62
70217;BME280;65567;55.684;37.570;2023-11-21T06:38:47;98780.19;;;-3.64;48.60
70217;BME280;65567;55.684;37.570;2023-11-21T06:41:13;98776.75;;;-3.63;48.26
70217;BME280;65567;55.684;37.570;2023-11-21T06:43:40;98772.53;;;-3.72;48.25
70217;BME280;65567;55.684;37.570;2023-11-21T06:46:06;98786.16;;;-3.79;48.83
70217;BME280;65567;55.684;37.570;2023-11-21T06:48:32;98777.63;;;-3.62;48.63
70217;BME280;65567;55.684;37.570;2023-11-21T06:50:59;98778.50;;;-3.67;49.48
70217;BME280;65567;55.684;37.570;2023-11-21T06:53:25;98781.03;;;-3.73;49.30
70217;BME280;65567;55.684;37.570;2023-11-21T06:55:51;98782.72;;;-3.47;48.59
70217;BME280;65567;55.684;37.570;2023-11-21T06:58:17;98770.75;;;-3.39;48.38
70217;BME280;65567;55.684;37.570;2023-11-21T07:00:45;98778.47;;;-3.42;49.23
70217;BME280;65567;55.684;37.570;2023-11-21T07:03:14;98773.31;;;-3.33;48.47
70217;BME280;65567;55.684;37.570;2023-11-21T07:05:42;98781.84;;;-3.34;48.30
70217;BME280;65567;55.684;37.570;2023-11-21T07:08:08;98771.59;;;-3.26;47.77
70217;BME280;65567;55.684;37.570;2023-11-21T07:10:34;98775.88;;;-3.26;48.26
70217;BME280;65567;55.684;37.570;2023-11-21T07:13:02;98759.63;;;-3.27;48.02
70217;BME280;65567;55.684;37.570;2023-11-21T07:15:30;98782.69;;;-3.24;46.80
70217;BME280;65567;55.684;37.570;2023-11-21T07:17:56;98786.94;;;-3.24;47.07
70217;BME280;65567;55.684;37.570;2023-11-21T07:20:22;98789.53;;;-3.34;47.96
70217;BME280;65567;55.684;37.570;2023-11-21T07:22:47;98789.47;;;-3.21;47.98
70217;BME280;65567;55.684;37.570;2023-11-21T07:25:13;98787.78;;;-3.18;48.51
70217;BME280;65567;55.684;37.570;2023-11-21T07:27:39;98749.41;;;-3.42;46.66
70217;BME280;65567;55.684;37.570;2023-11-21T07:30:08;98779.28;;;-3.27;46.56
70217;BME280;65567;55.684;37.570;2023-11-21T07:32:35;98787.81;;;-3.22;47.66
70217;BME280;65567;55.684;37.570;2023-11-21T07:35:01;98782.69;;;-3.22;47.03
70217;BME280;65567;55.684;37.570;2023-11-21T07:37:26;98798.06;;;-3.22;47.48
70217;BME280;65567;55.684;37.570;2023-11-21T07:39:54;98783.56;;;-3.39;47.49
70217;BME280;65567;55.684;37.570;2023-11-21T07:42:23;98792.09;;;-3.29;46.93
70217;BME280;65567;55.684;37.570;2023-11-21T07:44:49;98791.19;;;-3.20;46.84
70217;BME280;65567;55.684;37.570;2023-11-21T07:47:15;98798.06;;;-3.38;46.29
70217;BME280;65567;55.684;37.570;2023-11-21T07:49:41;98779.34;;;-3.61;47.35
70217;BME280;65567;55.684;37.570;2023-11-21T07:52:09;98801.47;;;-3.33;47.33
70217;BME280;65567;55.684;37.570;2023-11-21T07:54:35;98755.41;;;-3.45;46.27
70217;BME280;65567;55.684;37.570;2023-11-21T07:57:01;98792.94;;;-3.38;46.70
70217;BME280;65567;55.684;37.570;2023-11-21T07:59:29;98781.00;;;-3.31;46.25
70217;BME280;65567;55.684;37.570;2023-11-21T08:01:55;98781.84;;;-3.32;46.11
70217;BME280;65567;55.684;37.570;2023-11-21T08:04:21;98782.72;;;-3.38;46.14
70217;BME280;65567;55.684;37.570;2023-11-21T08:06:47;98769.91;;;-3.44;45.46
70217;BME280;65567;55.684;37.570;2023-11-21T08:09:13;98769.91;;;-3.45;45.85
70217;BME280;65567;55.684;37.570;2023-11-21T08:11:38;98784.44;;;-3.52;46.08
70217;BME280;65567;55.684;37.570;2023-11-21T08:14:05;98759.72;;;-3.64;46.04
70217;BME280;65567;55.684;37.570;2023-11-21T08:16:31;98775.03;;;-3.49;46.53
70217;BME280;65567;55.684;37.570;2023-11-21T08:18:56;98773.28;;;-3.23;46.47
70217;BME280;65567;55.684;37.570;2023-11-21T08:21:25;98783.53;;;-3.29;47.51
70217;BME280;65567;55.684;37.570;2023-11-21T08:23:54;98781.81;;;-3.21;46.02
70217;BME280;65567;55.684;37.570;2023-11-21T08:26:23;98788.66;;;-3.23;46.86
70217;BME280;65567;55.684;37.570;2023-11-21T08:28:49;98765.59;;;-3.22;46.87
70217;BME280;65567;55.684;37.570;2023-11-21T08:31:15;98771.56;;;-3.23;47.87
70217;BME280;65567;55.684;37.570;2023-11-21T08:33:41;98763.84;;;-3.04;46.41
70217;BME280;65567;55.684;37.570;2023-11-21T08:36:09;98774.94;;;-2.97;45.91
70217;BME280;65567;55.684;37.570;2023-11-21T08:38:37;98769.81;;;-3.04;45.34
70217;BME280;65567;55.684;37.570;2023-11-21T08:41:05;98767.22;;;-3.01;45.92
70217;BME280;65567;55.684;37.570;2023-11-21T08:43:37;98763.81;;;-2.96;46.57
70217;BME280;65567;55.684;37.570;2023-11-21T08:46:06;98762.84;;;-2.68;45.66
70217;BME280;65567;55.684;37.570;2023-11-21T08:48:37;98761.88;;;-2.51;45.50
70217;BME280;65567;55.684;37.570;2023-11-21T08:51:03;98759.38;;;-2.60;46.95
70217;BME280;65567;55.684;37.570;2023-11-21T08:53:30;98760.06;;;-2.30;46.02
70217;BME280;65567;55.684;37.570;2023-11-21T08:56:01;98760.84;;;-2.19;45.19
70217;BME280;65567;55.684;37.570;2023-11-21T08:58:27;98766.84;;;-2.23;45.43
70217;BME280;65567;55.684;37.570;2023-11-21T09:00:53;98765.16;;;-2.26;46.60
70217;BME280;65567;55.684;37.570;2023-11-21T09:03:19;98771.13;;;-2.21;45.19
70217;BME280;65567;55.684;37.570;2023-11-21T09:05:45;98782.22;;;-2.17;45.28
70217;BME280;65567;55.684;37.570;2023-11-21T09:08:10;98777.06;;;-2.14;46.10
70217;BME280;65567;55.684;37.570;2023-11-21T09:10:36;98782.97;;;-2.01;45.05
70217;BME280;65567;55.684;37.570;2023-11-21T09:13:05;98783.00;;;-2.07;45.12
70217;BME280;65567;55.684;37.570;2023-11-21T09:15:31;98784.75;;;-2.14;44.97
70217;BME280;65567;55.684;37.570;2023-11-21T09:17:57;98786.53;;;-2.27;45.55
70217;BME280;65567;55.684;37.570;2023-11-21T09:20:22;98781.38;;;-2.19;45.27
70217;BME280;65567;55.684;37.570;2023-11-21T09:22:49;98789.91;;;-2.17;45.33
70217;BME280;65567;55.684;37.570;2023-11-21T09:25:15;98756.66;;;-2.36;44.73
70217;BME280;65567;55.684;37.570;2023-11-21T09:27:41;98776.25;;;-2.24;45.29
70217;BME280;65567;55.684;37.570;2023-11-21T09:30:13;98781.38;;;-2.24;46.68
70217;BME280;65567;55.684;37.570;2023-11-21T09:32:42;98784.78;;;-2.17;45.70
70217;BME280;65567;55.684;37.570;2023-11-21T09:35:11;98778.72;;;-2.07;44.40
70217;BME280;65567;55.684;37.570;2023-11-21T09:37:36;98787.47;;;-2.39;43.92
70217;BME280;65567;55.684;37.570;2023-11-21T09:40:04;98785.84;;;-2.61;44.04
70217;BME280;65567;55.684;37.570;2023-11-21T09:42:48;98780.00;;;-2.87;44.57
70217;BME280;65567;55.684;37.570;2023-11-21T09:45:36;98762.09;;;-2.94;44.72
70217;BME280;65567;55.684;37.570;2023-11-21T09:48:04;98797.03;;;-2.69;44.84
70217;BME280;65567;55.684;37.570;2023-11-21T09:50:34;98790.22;;;-2.73;44.97
70217;BME280;65567;55.684;37.570;2023-11-21T09:53:17;98798.69;;;-2.58;45.64
70217;BME280;65567;55.684;37.570;2023-11-21T09:55:45;98794.38;;;-2.47;45.19
70217;BME280;65567;55.684;37.570;2023-11-21T09:58:13;98803.81;;;-2.61;45.72
70217;BME280;65567;55.684;37.570;2023-11-21T10:00:51;98803.88;;;-2.74;46.20
70217;BME280;65567;55.684;37.570;2023-11-21T10:03:18;98803.84;;;-2.71;46.29
70217;BME280;65567;55.684;37.570;2023-11-21T10:05:48;98814.13;;;-2.68;46.35
70217;BME280;65567;55.684;37.570;2023-11-21T10:08:15;98804.72;;;-2.72;46.40
70217;BME280;65567;55.684;37.570;2023-11-21T10:10:46;98808.94;;;-2.60;46.09
70217;BME280;65567;55.684;37.570;2023-11-21T10:13:14;98816.66;;;-2.64;45.89
70217;BME280;65567;55.684;37.570;2023-11-21T10:15:43;98810.69;;;-2.70;45.94
70217;BME280;65567;55.684;37.570;2023-11-21T10:18:14;98816.69;;;-2.72;46.22
70217;BME280;65567;55.684;37.570;2023-11-21T10:20:41;98811.53;;;-2.68;46.50
70217;BME280;65567;55.684;37.570;2023-11-21T10:23:08;98814.94;;;-2.62;46.66
70217;BME280;65567;55.684;37.570;2023-11-21T10:25:37;98808.97;;;-2.64;46.77
70217;BME280;65567;55.684;37.570;2023-11-21T10:28:03;98805.63;;;-2.82;47.21
70217;BME280;65567;55.684;37.570;2023-11-21T10:30:34;98804.72;;;-2.75;46.74
70217;BME280;65567;55.684;37.570;2023-11-21T10:33:03;98806.44;;;-2.74;46.85
70217;BME280;65567;55.684;37.570;2023-11-21T10:35:48;98811.56;;;-2.74;46.51
70217;BME280;65567;55.684;37.570;2023-11-21T10:38:20;98808.16;;;-2.79;46.56
70217;BME280;65567;55.684;37.570;2023-11-21T10:40:49;98801.34;;;-2.77;46.75
70217;BME280;65567;55.684;37.570;2023-11-21T10:43:15;98804.72;;;-2.69;46.35
70217;BME280;65567;55.684;37.570;2023-11-21T10:45:41;98808.09;;;-2.63;46.29
70217;BME280;65567;55.684;37.570;2023-11-21T10:48:09;98803.88;;;-2.75;45.95
70217;BME280;65567;55.684;37.570;2023-11-21T10:50:37;98799.63;;;-2.78;46.48
70217;BME280;65567;55.684;37.570;2023-11-21T10:53:03;98788.53;;;-2.86;46.68
70217;BME280;65567;55.684;37.570;2023-11-21T10:55:30;98806.38;;;-2.61;46.16
70217;BME280;65567;55.684;37.570;2023-11-21T10:58:00;98809.84;;;-2.64;46.19
70217;BME280;65567;55.684;37.570;2023-11-21T11:00:28;98798.72;;;-2.72;46.27
70217;BME280;65567;55.684;37.570;2023-11-21T11:02:55;98806.38;;;-2.61;46.33
70217;BME280;65567;55.684;37.570;2023-11-21T11:05:22;98822.63;;;-2.61;46.51
70217;BME280;65567;55.684;37.570;2023-11-21T11:07:58;98809.75;;;-2.56;46.76
70217;BME280;65567;55.684;37.570;2023-11-21T11:10:28;98805.59;;;-2.73;47.02
70217;BME280;65567;55.684;37.570;2023-11-21T11:12:55;98806.44;;;-2.69;47.19
70217;BME280;65567;55.684;37.570;2023-11-21T11:15:23;98788.53;;;-2.82;47.36
70217;BME280;65567;55.684;37.570;2023-11-21T11:17:49;98813.25;;;-2.70;47.78
70217;BME280;65567;55.684;37.570;2023-11-21T11:20:16;98805.56;;;-2.76;47.82
70217;BME280;65567;55.684;37.570;2023-11-21T11:25:44;98826.88;;;-2.61;47.46
70217;BME280;65567;55.684;37.570;2023-11-21T11:28:29;98825.19;;;-2.66;46.95
70217;BME280;65567;55.684;37.570;2023-11-21T11:33:59;98820.94;;;-2.70;46.23
70217;BME280;65567;55.684;37.570;2023-11-21T11:36:37;98833.78;;;-2.77;46.82
70217;BME280;65567;55.684;37.570;2023-11-21T11:39:29;98838.97;;;-2.90;47.18
70217;BME280;65567;55.684;37.570;2023-11-21T11:41:57;98797.16;;;-3.04;46.90
70217;BME280;65567;55.684;37.570;2023-11-21T11:47:23;98837.19;;;-2.74;46.16
70217;BME280;65567;55.684;37.570;2023-11-21T11:50:09;98841.50;;;-2.79;46.42
70217;BME280;65567;55.684;37.570;2023-11-21T11:52:46;98832.94;;;-2.81;46.36
70217;BME280;65567;55.684;37.570;2023-11-21T11:55:17;98827.81;;;-2.81;46.54
70217;BME280;65567;55.684;37.570;2023-11-21T11:57:51;98833.78;;;-2.77;46.38
70217;BME280;65567;55.684;37.570;2023-11-21T12:00:22;98826.09;;;-2.79;46.02
70217;BME280;65567;55.684;37.570;2023-11-21T12:03:00;98846.59;;;-2.71;46.29
70217;BME280;65567;55.684;37.570;2023-11-21T12:05:30;98846.56;;;-2.62;46.10
70217;BME280;65567;55.684;37.570;2023-11-21T12:08:02;98842.25;;;-2.55;45.48
70217;BME280;65567;55.684;37.570;2023-11-21T12:10:30;98860.22;;;-2.61;45.88
70217;BME280;65567;55.684;37.570;2023-11-21T12:13:07;98849.13;;;-2.63;46.08
70217;BME280;65567;55.684;37.570;2023-11-21T12:15:33;98855.91;;;-2.56;45.76
70217;BME280;65567;55.684;37.570;2023-11-21T12:18:00;98857.63;;;-2.55;45.80
70217;BME280;65567;55.684;37.570;2023-11-21T12:20:27;98857.69;;;-2.68;45.98
70217;BME280;65567;55.684;37.570;2023-11-21T12:23:00;98862.84;;;-2.69;46.02
70217;BME280;65567;55.684;37.570;2023-11-21T12:25:30;98856.84;;;-2.73;45.62
70217;BME280;65567;55.684;37.570;2023-11-21T12:28:01;98871.38;;;-2.81;45.56
70217;BME280;65567;55.684;37.570;2023-11-21T12:30:33;98870.56;;;-2.88;45.93
70217;BME280;65567;55.684;37.570;2023-11-21T12:33:01;98864.56;;;-2.91;45.64
70217;BME280;65567;55.684;37.570;2023-11-21T12:35:29;98872.28;;;-2.94;45.54
70217;BME280;65567;55.684;37.570;2023-11-21T12:37:56;98871.44;;;-2.93;45.77
70217;BME280;65567;55.684;37.570;2023-11-21T12:40:25;98869.69;;;-2.93;45.62
70217;BME280;65567;55.684;37.570;2023-11-21T12:42:52;98873.16;;;-3.05;45.77
70217;BME280;65567;55.684;37.570;2023-11-21T12:45:22;98862.91;;;-3.20;46.17
70217;BME280;65567;55.684;37.570;2023-11-21T12:47:51;98868.03;;;-3.19;46.19
70217;BME280;65567;55.684;37.570;2023-11-21T12:50:22;98875.72;;;-3.09;46.08
70217;BME280;65567;55.684;37.570;2023-11-21T12:52:50;98873.16;;;-3.14;46.41
70217;BME280;65567;55.684;37.570;2023-11-21T12:55:20;98839.91;;;-3.40;46.76
70217;BME280;65567;55.684;37.570;2023-11-21T12:57:54;98871.47;;;-3.10;46.56
70217;BME280;65567;55.684;37.570;2023-11-21T13:00:28;98863.72;;;-2.90;45.95
70217;BME280;65567;55.684;37.570;2023-11-21T13:02:56;98862.03;;;-2.90;45.82